Terminal Aerodrome Forecast
Issued by NWS

Home | Current Version | Previous Version | Text Only | Print | Product List | Glossary On
Versions: 1 2 3 4 5 6 7 8 9 10 11
227
FTUS45 KFGZ 241120
TAFPRC
TAF
KPRC 241120Z 2412/2512 18007KT P6SM FEW250
     FM241630 20015G22KT P6SM SCT250
     FM241830 22018G27KT P6SM FEW130 SCT250
     FM250300 22009KT P6SM FEW060 SCT130=

USA.gov is the U.S. government's official web portal to all federal, state and local government web resources and services.